sensor_id;sensor_type;location;lat;lon;timestamp;P1;durP1;ratioP1;P2;durP2;ratioP2
16308;SDS011;8263;48.880;9.276;2022-12-18T00:02:11;159.73;;;147.13;;
16308;SDS011;8263;48.880;9.276;2022-12-18T00:04:38;161.10;;;148.27;;
16308;SDS011;8263;48.880;9.276;2022-12-18T00:07:05;161.07;;;148.27;;
16308;SDS011;8263;48.880;9.276;2022-12-18T00:09:32;161.27;;;148.47;;
16308;SDS011;8263;48.880;9.276;2022-12-18T00:12:00;160.70;;;147.97;;
16308;SDS011;8263;48.880;9.276;2022-12-18T00:14:26;159.77;;;147.13;;
16308;SDS011;8263;48.880;9.276;2022-12-18T00:16:53;160.73;;;147.53;;
16308;SDS011;8263;48.880;9.276;2022-12-18T00:19:20;159.90;;;146.60;;
16308;SDS011;8263;48.880;9.276;2022-12-18T00:21:47;160.53;;;147.80;;
16308;SDS011;8263;48.880;9.276;2022-12-18T00:24:14;159.73;;;147.13;;
16308;SDS011;8263;48.880;9.276;2022-12-18T00:26:41;162.20;;;149.17;;
16308;SDS011;8263;48.880;9.276;2022-12-18T00:29:11;160.07;;;147.27;;
16308;SDS011;8263;48.880;9.276;2022-12-18T00:31:39;159.33;;;146.80;;
16308;SDS011;8263;48.880;9.276;2022-12-18T00:34:06;161.17;;;148.30;;
16308;SDS011;8263;48.880;9.276;2022-12-18T00:36:33;161.47;;;148.67;;
16308;SDS011;8263;48.880;9.276;2022-12-18T00:39:01;161.80;;;148.90;;
16308;SDS011;8263;48.880;9.276;2022-12-18T00:41:28;161.47;;;148.57;;
16308;SDS011;8263;48.880;9.276;2022-12-18T00:44:14;161.83;;;148.93;;
16308;SDS011;8263;48.880;9.276;2022-12-18T00:46:41;159.50;;;146.90;;
16308;SDS011;8263;48.880;9.276;2022-12-18T00:49:08;161.03;;;148.23;;
16308;SDS011;8263;48.880;9.276;2022-12-18T00:51:38;160.43;;;147.73;;
16308;SDS011;8263;48.880;9.276;2022-12-18T00:54:05;160.70;;;147.97;;
16308;SDS011;8263;48.880;9.276;2022-12-18T00:56:31;163.07;;;150.10;;
16308;SDS011;8263;48.880;9.276;2022-12-18T00:58:58;162.10;;;149.17;;
16308;SDS011;8263;48.880;9.276;2022-12-18T01:01:25;162.53;;;149.60;;
16308;SDS011;8263;48.880;9.276;2022-12-18T01:03:52;164.97;;;151.77;;
16308;SDS011;8263;48.880;9.276;2022-12-18T01:06:18;163.77;;;150.57;;
16308;SDS011;8263;48.880;9.276;2022-12-18T01:08:45;162.50;;;149.60;;
16308;SDS011;8263;48.880;9.276;2022-12-18T01:11:12;162.53;;;149.37;;
16308;SDS011;8263;48.880;9.276;2022-12-18T01:13:39;163.43;;;150.30;;
16308;SDS011;8263;48.880;9.276;2022-12-18T01:16:05;163.80;;;150.50;;
16308;SDS011;8263;48.880;9.276;2022-12-18T01:18:33;164.03;;;150.83;;
16308;SDS011;8263;48.880;9.276;2022-12-18T01:21:00;165.30;;;151.70;;
16308;SDS011;8263;48.880;9.276;2022-12-18T01:23:27;162.53;;;149.53;;
16308;SDS011;8263;48.880;9.276;2022-12-18T01:25:53;161.07;;;148.30;;
16308;SDS011;8263;48.880;9.276;2022-12-18T01:28:20;162.37;;;149.47;;
16308;SDS011;8263;48.880;9.276;2022-12-18T01:30:46;162.37;;;149.43;;
16308;SDS011;8263;48.880;9.276;2022-12-18T01:33:14;162.77;;;149.50;;
16308;SDS011;8263;48.880;9.276;2022-12-18T01:35:42;163.90;;;150.73;;
16308;SDS011;8263;48.880;9.276;2022-12-18T01:38:09;163.10;;;150.07;;
16308;SDS011;8263;48.880;9.276;2022-12-18T01:40:36;165.57;;;151.67;;
16308;SDS011;8263;48.880;9.276;2022-12-18T01:43:03;164.77;;;151.50;;
16308;SDS011;8263;48.880;9.276;2022-12-18T01:45:31;164.57;;;151.17;;
16308;SDS011;8263;48.880;9.276;2022-12-18T01:47:59;164.30;;;150.43;;
16308;SDS011;8263;48.880;9.276;2022-12-18T01:50:36;163.53;;;150.17;;
16308;SDS011;8263;48.880;9.276;2022-12-18T01:53:09;162.77;;;149.73;;
16308;SDS011;8263;48.880;9.276;2022-12-18T01:55:42;161.67;;;148.70;;
16308;SDS011;8263;48.880;9.276;2022-12-18T01:58:17;163.33;;;150.30;;
16308;SDS011;8263;48.880;9.276;2022-12-18T02:00:43;160.73;;;147.93;;
16308;SDS011;8263;48.880;9.276;2022-12-18T02:03:10;161.37;;;148.57;;
16308;SDS011;8263;48.880;9.276;2022-12-18T02:05:40;163.40;;;150.33;;
16308;SDS011;8263;48.880;9.276;2022-12-18T02:08:15;162.77;;;149.77;;
16308;SDS011;8263;48.880;9.276;2022-12-18T02:10:46;161.47;;;148.67;;
16308;SDS011;8263;48.880;9.276;2022-12-18T02:13:14;164.17;;;150.97;;
16308;SDS011;8263;48.880;9.276;2022-12-18T02:15:49;164.07;;;150.37;;
16308;SDS011;8263;48.880;9.276;2022-12-18T02:18:18;163.07;;;150.07;;
16308;SDS011;8263;48.880;9.276;2022-12-18T02:20:47;163.40;;;150.10;;
16308;SDS011;8263;48.880;9.276;2022-12-18T02:23:19;165.00;;;151.80;;
16308;SDS011;8263;48.880;9.276;2022-12-18T02:25:58;162.07;;;149.17;;
16308;SDS011;8263;48.880;9.276;2022-12-18T02:28:31;164.80;;;151.60;;
16308;SDS011;8263;48.880;9.276;2022-12-18T02:30:59;162.97;;;149.97;;
16308;SDS011;8263;48.880;9.276;2022-12-18T02:33:27;163.20;;;150.17;;
16308;SDS011;8263;48.880;9.276;2022-12-18T02:35:55;163.50;;;150.40;;
16308;SDS011;8263;48.880;9.276;2022-12-18T02:38:23;163.07;;;149.93;;
16308;SDS011;8263;48.880;9.276;2022-12-18T02:40:51;165.00;;;151.70;;
16308;SDS011;8263;48.880;9.276;2022-12-18T02:43:20;162.73;;;149.73;;
16308;SDS011;8263;48.880;9.276;2022-12-18T02:45:46;164.10;;;151.00;;
16308;SDS011;8263;48.880;9.276;2022-12-18T02:48:13;163.13;;;150.13;;
16308;SDS011;8263;48.880;9.276;2022-12-18T02:50:41;164.17;;;151.00;;
16308;SDS011;8263;48.880;9.276;2022-12-18T02:53:13;164.57;;;151.37;;
16308;SDS011;8263;48.880;9.276;2022-12-18T02:55:48;163.67;;;150.57;;
16308;SDS011;8263;48.880;9.276;2022-12-18T02:58:26;163.63;;;150.53;;
16308;SDS011;8263;48.880;9.276;2022-12-18T03:00:56;163.87;;;150.77;;
16308;SDS011;8263;48.880;9.276;2022-12-18T03:03:24;165.83;;;152.20;;
16308;SDS011;8263;48.880;9.276;2022-12-18T03:05:56;164.53;;;151.17;;
16308;SDS011;8263;48.880;9.276;2022-12-18T03:08:24;164.17;;;151.07;;
16308;SDS011;8263;48.880;9.276;2022-12-18T03:10:53;165.47;;;152.17;;
16308;SDS011;8263;48.880;9.276;2022-12-18T03:13:23;162.67;;;149.73;;
16308;SDS011;8263;48.880;9.276;2022-12-18T03:15:56;165.50;;;152.20;;
16308;SDS011;8263;48.880;9.276;2022-12-18T03:18:26;163.30;;;150.13;;
16308;SDS011;8263;48.880;9.276;2022-12-18T03:20:56;165.07;;;151.77;;
16308;SDS011;8263;48.880;9.276;2022-12-18T03:23:25;164.47;;;151.27;;
16308;SDS011;8263;48.880;9.276;2022-12-18T03:25:54;165.40;;;151.80;;
16308;SDS011;8263;48.880;9.276;2022-12-18T03:28:22;165.67;;;152.37;;
16308;SDS011;8263;48.880;9.276;2022-12-18T03:30:50;163.50;;;150.40;;
16308;SDS011;8263;48.880;9.276;2022-12-18T03:33:21;164.13;;;150.90;;
16308;SDS011;8263;48.880;9.276;2022-12-18T03:35:51;165.37;;;152.07;;
16308;SDS011;8263;48.880;9.276;2022-12-18T03:38:18;164.23;;;151.07;;
16308;SDS011;8263;48.880;9.276;2022-12-18T03:40:47;165.00;;;151.40;;
16308;SDS011;8263;48.880;9.276;2022-12-18T03:43:18;165.43;;;152.10;;
16308;SDS011;8263;48.880;9.276;2022-12-18T03:45:48;161.97;;;149.03;;
16308;SDS011;8263;48.880;9.276;2022-12-18T03:48:17;161.53;;;148.67;;
16308;SDS011;8263;48.880;9.276;2022-12-18T03:50:46;162.33;;;149.30;;
16308;SDS011;8263;48.880;9.276;2022-12-18T03:53:17;166.37;;;152.67;;
16308;SDS011;8263;48.880;9.276;2022-12-18T03:55:47;161.07;;;148.27;;
16308;SDS011;8263;48.880;9.276;2022-12-18T03:58:15;166.73;;;152.50;;
16308;SDS011;8263;48.880;9.276;2022-12-18T04:00:43;163.10;;;150.07;;
16308;SDS011;8263;48.880;9.276;2022-12-18T04:03:10;166.93;;;153.23;;
16308;SDS011;8263;48.880;9.276;2022-12-18T04:05:37;166.27;;;152.77;;
16308;SDS011;8263;48.880;9.276;2022-12-18T04:08:05;166.17;;;152.60;;
16308;SDS011;8263;48.880;9.276;2022-12-18T04:10:31;165.23;;;151.93;;
16308;SDS011;8263;48.880;9.276;2022-12-18T04:13:00;164.37;;;151.17;;
16308;SDS011;8263;48.880;9.276;2022-12-18T04:15:26;165.10;;;151.80;;
16308;SDS011;8263;48.880;9.276;2022-12-18T04:17:53;164.77;;;151.57;;
16308;SDS011;8263;48.880;9.276;2022-12-18T04:20:19;165.67;;;152.30;;
16308;SDS011;8263;48.880;9.276;2022-12-18T04:22:47;163.77;;;150.67;;
16308;SDS011;8263;48.880;9.276;2022-12-18T04:25:14;164.43;;;151.23;;
16308;SDS011;8263;48.880;9.276;2022-12-18T04:27:41;165.90;;;152.50;;
16308;SDS011;8263;48.880;9.276;2022-12-18T04:30:07;164.90;;;151.63;;
16308;SDS011;8263;48.880;9.276;2022-12-18T04:32:34;164.40;;;151.20;;
16308;SDS011;8263;48.880;9.276;2022-12-18T04:35:01;164.50;;;151.30;;
16308;SDS011;8263;48.880;9.276;2022-12-18T04:37:30;165.73;;;152.33;;
16308;SDS011;8263;48.880;9.276;2022-12-18T04:39:57;165.13;;;151.80;;
16308;SDS011;8263;48.880;9.276;2022-12-18T04:42:24;164.90;;;151.63;;
16308;SDS011;8263;48.880;9.276;2022-12-18T04:44:51;164.20;;;151.03;;
16308;SDS011;8263;48.880;9.276;2022-12-18T04:47:17;166.57;;;153.07;;
16308;SDS011;8263;48.880;9.276;2022-12-18T04:49:43;165.07;;;151.77;;
16308;SDS011;8263;48.880;9.276;2022-12-18T04:52:10;164.53;;;151.33;;
16308;SDS011;8263;48.880;9.276;2022-12-18T04:54:36;165.53;;;151.90;;
16308;SDS011;8263;48.880;9.276;2022-12-18T04:57:03;163.33;;;150.23;;
16308;SDS011;8263;48.880;9.276;2022-12-18T04:59:30;164.43;;;151.23;;
16308;SDS011;8263;48.880;9.276;2022-12-18T05:01:57;166.80;;;153.23;;
16308;SDS011;8263;48.880;9.276;2022-12-18T05:04:23;166.33;;;152.90;;
16308;SDS011;8263;48.880;9.276;2022-12-18T05:06:49;162.37;;;149.40;;
16308;SDS011;8263;48.880;9.276;2022-12-18T05:09:16;165.37;;;152.07;;
16308;SDS011;8263;48.880;9.276;2022-12-18T05:11:42;167.40;;;153.67;;
16308;SDS011;8263;48.880;9.276;2022-12-18T05:14:09;165.63;;;152.33;;
16308;SDS011;8263;48.880;9.276;2022-12-18T05:16:36;166.10;;;152.63;;
16308;SDS011;8263;48.880;9.276;2022-12-18T05:19:03;166.77;;;153.00;;
16308;SDS011;8263;48.880;9.276;2022-12-18T05:21:29;165.40;;;152.10;;
16308;SDS011;8263;48.880;9.276;2022-12-18T05:23:56;165.63;;;152.27;;
16308;SDS011;8263;48.880;9.276;2022-12-18T05:26:22;165.90;;;152.50;;
16308;SDS011;8263;48.880;9.276;2022-12-18T05:28:49;165.13;;;151.83;;
16308;SDS011;8263;48.880;9.276;2022-12-18T05:31:15;166.20;;;152.80;;
16308;SDS011;8263;48.880;9.276;2022-12-18T05:33:43;165.67;;;152.27;;
16308;SDS011;8263;48.880;9.276;2022-12-18T05:36:10;165.70;;;152.30;;
16308;SDS011;8263;48.880;9.276;2022-12-18T05:38:37;167.23;;;153.63;;
16308;SDS011;8263;48.880;9.276;2022-12-18T05:41:04;164.57;;;151.20;;
16308;SDS011;8263;48.880;9.276;2022-12-18T05:43:31;164.13;;;150.97;;
16308;SDS011;8263;48.880;9.276;2022-12-18T05:45:57;164.47;;;151.27;;
16308;SDS011;8263;48.880;9.276;2022-12-18T05:48:23;164.60;;;151.30;;
16308;SDS011;8263;48.880;9.276;2022-12-18T05:50:51;167.57;;;153.57;;
16308;SDS011;8263;48.880;9.276;2022-12-18T05:53:19;167.00;;;153.30;;
16308;SDS011;8263;48.880;9.276;2022-12-18T05:55:45;166.87;;;153.37;;
16308;SDS011;8263;48.880;9.276;2022-12-18T05:58:12;167.67;;;154.07;;
16308;SDS011;8263;48.880;9.276;2022-12-18T06:00:40;165.60;;;152.30;;
16308;SDS011;8263;48.880;9.276;2022-12-18T06:03:06;164.60;;;151.40;;
16308;SDS011;8263;48.880;9.276;2022-12-18T06:05:34;166.93;;;153.43;;
16308;SDS011;8263;48.880;9.276;2022-12-18T06:08:02;166.47;;;153.03;;
16308;SDS011;8263;48.880;9.276;2022-12-18T06:10:29;164.97;;;151.67;;
16308;SDS011;8263;48.880;9.276;2022-12-18T06:12:55;168.00;;;154.37;;
16308;SDS011;8263;48.880;9.276;2022-12-18T06:15:22;166.57;;;152.20;;
16308;SDS011;8263;48.880;9.276;2022-12-18T06:17:49;166.67;;;153.10;;
16308;SDS011;8263;48.880;9.276;2022-12-18T06:20:15;165.80;;;152.40;;
16308;SDS011;8263;48.880;9.276;2022-12-18T06:22:42;165.27;;;151.97;;
16308;SDS011;8263;48.880;9.276;2022-12-18T06:25:10;163.47;;;150.37;;
16308;SDS011;8263;48.880;9.276;2022-12-18T06:27:36;167.10;;;153.60;;
16308;SDS011;8263;48.880;9.276;2022-12-18T06:30:03;166.60;;;153.10;;
16308;SDS011;8263;48.880;9.276;2022-12-18T06:32:29;165.07;;;151.77;;
16308;SDS011;8263;48.880;9.276;2022-12-18T06:34:56;163.70;;;150.57;;
16308;SDS011;8263;48.880;9.276;2022-12-18T06:37:22;165.23;;;151.83;;
16308;SDS011;8263;48.880;9.276;2022-12-18T06:39:50;166.17;;;152.67;;
16308;SDS011;8263;48.880;9.276;2022-12-18T06:42:23;166.50;;;153.00;;
16308;SDS011;8263;48.880;9.276;2022-12-18T06:44:49;167.97;;;154.37;;
16308;SDS011;8263;48.880;9.276;2022-12-18T06:47:15;167.10;;;153.53;;
16308;SDS011;8263;48.880;9.276;2022-12-18T06:49:42;166.07;;;152.60;;
16308;SDS011;8263;48.880;9.276;2022-12-18T06:52:09;167.30;;;153.80;;
16308;SDS011;8263;48.880;9.276;2022-12-18T06:54:35;165.90;;;152.50;;
16308;SDS011;8263;48.880;9.276;2022-12-18T06:57:01;167.80;;;153.60;;
16308;SDS011;8263;48.880;9.276;2022-12-18T06:59:29;165.30;;;152.00;;
16308;SDS011;8263;48.880;9.276;2022-12-18T07:01:56;164.97;;;151.67;;
16308;SDS011;8263;48.880;9.276;2022-12-18T07:04:24;170.13;;;156.00;;
16308;SDS011;8263;48.880;9.276;2022-12-18T07:06:53;168.53;;;154.83;;
16308;SDS011;8263;48.880;9.276;2022-12-18T07:09:19;166.30;;;152.90;;
16308;SDS011;8263;48.880;9.276;2022-12-18T07:11:46;166.80;;;153.30;;
16308;SDS011;8263;48.880;9.276;2022-12-18T07:14:12;167.00;;;153.30;;
16308;SDS011;8263;48.880;9.276;2022-12-18T07:16:40;165.67;;;152.30;;
16308;SDS011;8263;48.880;9.276;2022-12-18T07:19:06;166.47;;;153.00;;
16308;SDS011;8263;48.880;9.276;2022-12-18T07:21:33;166.90;;;153.40;;
16308;SDS011;8263;48.880;9.276;2022-12-18T07:23:59;164.50;;;151.27;;
16308;SDS011;8263;48.880;9.276;2022-12-18T07:26:26;167.07;;;153.33;;
16308;SDS011;8263;48.880;9.276;2022-12-18T07:28:54;166.80;;;153.30;;
16308;SDS011;8263;48.880;9.276;2022-12-18T07:31:22;164.10;;;150.93;;
16308;SDS011;8263;48.880;9.276;2022-12-18T07:33:50;166.87;;;153.37;;
16308;SDS011;8263;48.880;9.276;2022-12-18T07:36:16;165.90;;;152.17;;
16308;SDS011;8263;48.880;9.276;2022-12-18T07:38:46;167.43;;;153.83;;
16308;SDS011;8263;48.880;9.276;2022-12-18T07:41:13;168.73;;;155.00;;
16308;SDS011;8263;48.880;9.276;2022-12-18T07:43:40;166.50;;;153.00;;
16308;SDS011;8263;48.880;9.276;2022-12-18T07:46:07;167.17;;;153.63;;
16308;SDS011;8263;48.880;9.276;2022-12-18T07:48:34;167.73;;;154.07;;
16308;SDS011;8263;48.880;9.276;2022-12-18T07:51:03;166.07;;;152.67;;
16308;SDS011;8263;48.880;9.276;2022-12-18T07:53:30;167.20;;;153.60;;
16308;SDS011;8263;48.880;9.276;2022-12-18T07:55:57;166.80;;;153.30;;
16308;SDS011;8263;48.880;9.276;2022-12-18T07:58:23;166.87;;;153.37;;
16308;SDS011;8263;48.880;9.276;2022-12-18T08:00:50;166.37;;;152.80;;
16308;SDS011;8263;48.880;9.276;2022-12-18T08:03:17;166.97;;;153.47;;
16308;SDS011;8263;48.880;9.276;2022-12-18T08:05:44;167.03;;;153.50;;
16308;SDS011;8263;48.880;9.276;2022-12-18T08:08:11;168.03;;;154.40;;
16308;SDS011;8263;48.880;9.276;2022-12-18T08:10:38;169.27;;;155.47;;
16308;SDS011;8263;48.880;9.276;2022-12-18T08:13:05;168.80;;;155.10;;
16308;SDS011;8263;48.880;9.276;2022-12-18T08:15:31;166.37;;;152.90;;
16308;SDS011;8263;48.880;9.276;2022-12-18T08:17:58;166.17;;;152.73;;
16308;SDS011;8263;48.880;9.276;2022-12-18T08:20:24;166.27;;;152.77;;
16308;SDS011;8263;48.880;9.276;2022-12-18T08:22:51;167.33;;;153.77;;
16308;SDS011;8263;48.880;9.276;2022-12-18T08:25:18;166.43;;;153.03;;
16308;SDS011;8263;48.880;9.276;2022-12-18T08:27:45;166.77;;;153.27;;
16308;SDS011;8263;48.880;9.276;2022-12-18T08:30:12;164.97;;;151.60;;
16308;SDS011;8263;48.880;9.276;2022-12-18T08:32:38;167.90;;;154.27;;
16308;SDS011;8263;48.880;9.276;2022-12-18T08:35:05;168.17;;;154.33;;
16308;SDS011;8263;48.880;9.276;2022-12-18T08:37:32;165.37;;;152.07;;
16308;SDS011;8263;48.880;9.276;2022-12-18T08:39:59;167.47;;;153.80;;
16308;SDS011;8263;48.880;9.276;2022-12-18T08:42:27;167.33;;;153.63;;
16308;SDS011;8263;48.880;9.276;2022-12-18T08:45:08;166.13;;;152.73;;
16308;SDS011;8263;48.880;9.276;2022-12-18T08:47:34;167.83;;;154.23;;
16308;SDS011;8263;48.880;9.276;2022-12-18T08:50:01;169.20;;;155.10;;
16308;SDS011;8263;48.880;9.276;2022-12-18T08:52:27;167.40;;;153.77;;
16308;SDS011;8263;48.880;9.276;2022-12-18T08:54:54;166.63;;;153.17;;
16308;SDS011;8263;48.880;9.276;2022-12-18T08:57:20;167.77;;;154.17;;
16308;SDS011;8263;48.880;9.276;2022-12-18T08:59:48;167.23;;;153.73;;
16308;SDS011;8263;48.880;9.276;2022-12-18T09:02:14;165.90;;;152.50;;
16308;SDS011;8263;48.880;9.276;2022-12-18T09:04:41;165.27;;;151.87;;
16308;SDS011;8263;48.880;9.276;2022-12-18T09:07:07;165.50;;;152.20;;
16308;SDS011;8263;48.880;9.276;2022-12-18T09:09:34;166.10;;;152.70;;
16308;SDS011;8263;48.880;9.276;2022-12-18T09:12:00;169.03;;;154.57;;
16308;SDS011;8263;48.880;9.276;2022-12-18T09:14:26;168.07;;;154.27;;
16308;SDS011;8263;48.880;9.276;2022-12-18T09:16:54;167.30;;;153.02;;
16308;SDS011;8263;48.880;9.276;2022-12-18T09:19:21;164.00;;;150.60;;
16308;SDS011;8263;48.880;9.276;2022-12-18T09:21:47;164.70;;;151.30;;
16308;SDS011;8263;48.880;9.276;2022-12-18T09:24:14;164.33;;;151.00;;
16308;SDS011;8263;48.880;9.276;2022-12-18T09:26:41;166.37;;;152.93;;
16308;SDS011;8263;48.880;9.276;2022-12-18T09:29:07;167.33;;;153.70;;
16308;SDS011;8263;48.880;9.276;2022-12-18T09:31:34;162.53;;;149.53;;
16308;SDS011;8263;48.880;9.276;2022-12-18T09:34:04;165.43;;;152.13;;
16308;SDS011;8263;48.880;9.276;2022-12-18T09:36:31;166.60;;;152.90;;
16308;SDS011;8263;48.880;9.276;2022-12-18T09:38:57;168.67;;;154.87;;
16308;SDS011;8263;48.880;9.276;2022-12-18T09:41:39;165.17;;;151.87;;
16308;SDS011;8263;48.880;9.276;2022-12-18T09:44:10;165.47;;;152.17;;
16308;SDS011;8263;48.880;9.276;2022-12-18T09:46:40;166.47;;;152.97;;
16308;SDS011;8263;48.880;9.276;2022-12-18T09:49:12;166.93;;;153.40;;
16308;SDS011;8263;48.880;9.276;2022-12-18T09:51:40;167.13;;;153.63;;
16308;SDS011;8263;48.880;9.276;2022-12-18T09:54:11;165.67;;;152.33;;
16308;SDS011;8263;48.880;9.276;2022-12-18T09:56:38;163.50;;;149.45;;
16308;SDS011;8263;48.880;9.276;2022-12-18T09:59:13;164.10;;;150.87;;
16308;SDS011;8263;48.880;9.276;2022-12-18T10:01:43;164.80;;;151.60;;
16308;SDS011;8263;48.880;9.276;2022-12-18T10:04:10;164.90;;;151.63;;
16308;SDS011;8263;48.880;9.276;2022-12-18T10:06:38;166.23;;;152.23;;
16308;SDS011;8263;48.880;9.276;2022-12-18T10:09:11;167.07;;;153.20;;
16308;SDS011;8263;48.880;9.276;2022-12-18T10:19:54;167.47;;;153.97;;
16308;SDS011;8263;48.880;9.276;2022-12-18T10:22:28;167.10;;;153.57;;
16308;SDS011;8263;48.880;9.276;2022-12-18T10:24:59;166.90;;;153.17;;
16308;SDS011;8263;48.880;9.276;2022-12-18T10:27:29;166.17;;;152.77;;
16308;SDS011;8263;48.880;9.276;2022-12-18T10:29:57;166.43;;;152.97;;
16308;SDS011;8263;48.880;9.276;2022-12-18T10:32:24;164.83;;;151.63;;
16308;SDS011;8263;48.880;9.276;2022-12-18T10:34:54;169.57;;;155.37;;
16308;SDS011;8263;48.880;9.276;2022-12-18T10:37:22;167.13;;;153.27;;
16308;SDS011;8263;48.880;9.276;2022-12-18T10:40:06;167.13;;;153.57;;
16308;SDS011;8263;48.880;9.276;2022-12-18T10:42:35;166.87;;;153.33;;
16308;SDS011;8263;48.880;9.276;2022-12-18T10:45:02;165.50;;;152.17;;
16308;SDS011;8263;48.880;9.276;2022-12-18T10:47:35;165.83;;;152.13;;
16308;SDS011;8263;48.880;9.276;2022-12-18T10:50:11;166.43;;;153.03;;
16308;SDS011;8263;48.880;9.276;2022-12-18T10:52:59;167.30;;;153.33;;
16308;SDS011;8263;48.880;9.276;2022-12-18T10:55:36;164.13;;;150.50;;
16308;SDS011;8263;48.880;9.276;2022-12-18T10:58:23;164.93;;;151.50;;
16308;SDS011;8263;48.880;9.276;2022-12-18T11:27:47;163.07;;;150.10;;
16308;SDS011;8263;48.880;9.276;2022-12-18T11:30:20;164.40;;;151.03;;
16308;SDS011;8263;48.880;9.276;2022-12-18T11:32:48;166.53;;;152.57;;
16308;SDS011;8263;48.880;9.276;2022-12-18T11:35:32;166.50;;;152.40;;
16308;SDS011;8263;48.880;9.276;2022-12-18T11:38:02;163.30;;;150.17;;
16308;SDS011;8263;48.880;9.276;2022-12-18T11:40:33;162.63;;;149.40;;
16308;SDS011;8263;48.880;9.276;2022-12-18T11:43:04;159.07;;;146.50;;
16308;SDS011;8263;48.880;9.276;2022-12-18T12:14:05;159.67;;;146.93;;
